createdAt,value
2023-04-24T00:02:23.073Z,100200.44
2023-04-24T00:05:09.924Z,100189.94
2023-04-24T00:07:56.614Z,100189.13
2023-04-24T00:10:42.674Z,100171.16
2023-04-24T00:13:30.310Z,100166.13
2023-04-24T00:16:16.169Z,100161.81
2023-04-24T00:19:02.098Z,100163.34
2023-04-24T00:21:50.817Z,100163.47
2023-04-24T00:24:36.997Z,100155.50
2023-04-24T00:27:22.733Z,100157.50
2023-04-24T00:30:10.620Z,100174.13
2023-04-24T00:32:56.865Z,100159.84
2023-04-24T00:35:43.550Z,100158.16
2023-04-24T00:38:30.871Z,100143.84
2023-04-24T00:41:17.223Z,100136.19
2023-04-24T00:44:03.221Z,100134.06
2023-04-24T00:46:52.841Z,100124.41
2023-04-24T00:49:38.527Z,100116.28
2023-04-24T00:52:25.157Z,100110.63
2023-04-24T00:55:11.418Z,100110.97
2023-04-24T00:57:57.471Z,100099.84
2023-04-24T01:00:43.210Z,100090.38
2023-04-24T01:03:31.527Z,100085.41
2023-04-24T01:06:17.605Z,100070.47
2023-04-24T01:09:03.564Z,100072.00
2023-04-24T01:11:49.717Z,100058.22
2023-04-24T01:14:35.672Z,100045.75
2023-04-24T01:17:21.988Z,100035.81
2023-04-24T01:20:10.038Z,100038.53
2023-04-24T01:22:58.330Z,100034.53
2023-04-24T01:25:44.325Z,100033.22
2023-04-24T01:28:30.266Z,100039.69
2023-04-24T01:31:17.399Z,100035.06
2023-04-24T01:34:03.150Z,100029.78
2023-04-24T01:36:49.248Z,100038.09
2023-04-24T01:39:36.891Z,100030.16
2023-04-24T01:42:23.162Z,100035.28
2023-04-24T01:45:10.219Z,100040.09
2023-04-24T01:47:56.367Z,100043.44
2023-04-24T01:50:43.684Z,100050.06
2023-04-24T01:53:31.411Z,100052.41
2023-04-24T01:56:18.829Z,100047.09
2023-04-24T01:59:05.017Z,100049.09
2023-04-24T02:01:51.151Z,100050.91
2023-04-24T02:04:39.158Z,100038.63
2023-04-24T02:07:25.039Z,100021.03
2023-04-24T02:10:11.502Z,100017.38
2023-04-24T02:13:03.580Z,100013.41
2023-04-24T02:15:49.364Z,100008.28
2023-04-24T02:18:35.117Z,100008.59
2023-04-24T02:21:21.138Z,100005.63
2023-04-24T02:24:06.949Z,99998.66
2023-04-24T02:26:52.712Z,99992.16
2023-04-24T02:29:41.169Z,99987.69
2023-04-24T02:32:27.136Z,99976.22
2023-04-24T02:35:13.018Z,99967.44
2023-04-24T02:37:59.348Z,99970.09
2023-04-24T02:40:45.245Z,99972.09
2023-04-24T02:43:31.243Z,99967.59
2023-04-24T02:46:19.054Z,99960.63
2023-04-24T02:49:05.134Z,99960.78
2023-04-24T02:51:50.841Z,99958.47
2023-04-24T02:54:36.740Z,99956.16
2023-04-24T02:57:22.399Z,99956.31
2023-04-24T03:00:09.822Z,99962.78
2023-04-24T03:02:57.108Z,99961.13
2023-04-24T03:05:43.206Z,99959.63
2023-04-24T03:08:29.324Z,99952.66
2023-04-24T03:11:15.077Z,99948.03
2023-04-24T03:14:01.382Z,99958.00
2023-04-24T03:16:47.117Z,99946.22
2023-04-24T03:19:34.733Z,99940.25
2023-04-24T03:22:25.634Z,99940.03
2023-04-24T03:25:12.188Z,99931.59
2023-04-24T03:27:57.947Z,99924.94
2023-04-24T03:31:02.590Z,99916.66
2023-04-24T03:33:52.986Z,99916.66
2023-04-24T03:36:40.500Z,99913.69
2023-04-24T03:39:28.326Z,99919.34
2023-04-24T03:42:15.988Z,99920.81
2023-04-24T03:45:10.566Z,99926.44
2023-04-24T03:47:59.314Z,99924.66
2023-04-24T03:50:45.652Z,99932.94
2023-04-24T03:53:33.877Z,99944.03
2023-04-24T03:56:19.782Z,99946.19
2023-04-24T03:59:06.136Z,99944.69
2023-04-24T04:01:53.382Z,99954.31
2023-04-24T04:04:40.681Z,99965.06
2023-04-24T04:07:27.268Z,99985.13
2023-04-24T04:10:15.210Z,99993.56
2023-04-24T04:13:01.365Z,100006.00
2023-04-24T04:15:47.367Z,100013.47
2023-04-24T04:18:34.303Z,100024.06
2023-04-24T04:21:20.414Z,100030.38
2023-04-24T04:24:08.550Z,100041.97
2023-04-24T04:27:00.219Z,100058.19
2023-04-24T04:29:53.483Z,100070.44
2023-04-24T04:32:40.058Z,100079.41
2023-04-24T04:35:25.879Z,100082.72
2023-04-24T04:38:12.226Z,100093.47
2023-04-24T04:41:03.192Z,100102.13
2023-04-24T04:43:53.722Z,100119.56
2023-04-24T04:46:39.663Z,100122.19
2023-04-24T04:49:39.379Z,100135.13
2023-04-24T04:52:29.577Z,100138.47
2023-04-24T04:55:28.089Z,100139.97
2023-04-24T04:58:31.651Z,100142.44
2023-04-24T05:01:22.209Z,100159.53
2023-04-24T05:04:09.554Z,100164.22
2023-04-24T05:06:57.326Z,100166.06
2023-04-24T05:09:45.737Z,100154.00
2023-04-24T05:12:31.903Z,100158.16
2023-04-24T05:15:18.448Z,100166.63
2023-04-24T05:18:06.222Z,100172.44
2023-04-24T05:20:52.788Z,100183.56
2023-04-24T05:23:39.069Z,100190.91
2023-04-24T05:26:25.843Z,100187.44
2023-04-24T05:29:12.756Z,100162.91
2023-04-24T05:31:58.947Z,100149.00
2023-04-24T05:34:46.590Z,100138.56
2023-04-24T05:37:33.384Z,100135.22
2023-04-24T05:40:19.633Z,100126.78
2023-04-24T05:43:05.536Z,100135.09
2023-04-24T05:45:51.845Z,100120.31
2023-04-24T05:48:38.241Z,100107.50
2023-04-24T05:51:25.361Z,100100.91
2023-04-24T05:54:13.060Z,100087.59
2023-04-24T05:56:59.226Z,100075.47
2023-04-24T05:59:54.565Z,100064.53
2023-04-24T06:02:42.086Z,100053.53
2023-04-24T06:05:31.571Z,100055.69
2023-04-24T06:08:18.860Z,100040.41
2023-04-24T06:11:06.531Z,100030.06
2023-04-24T06:13:53.770Z,100021.78
2023-04-24T06:16:58.043Z,100015.28
2023-04-24T06:19:54.289Z,100012.59
2023-04-24T06:22:42.243Z,100003.97
2023-04-24T06:25:31.465Z,100003.13
2023-04-24T06:28:17.544Z,100002.44
2023-04-24T06:31:03.684Z,99993.31
2023-04-24T06:33:49.767Z,100001.13
2023-04-24T06:36:36.538Z,99987.00
2023-04-24T06:39:22.641Z,100002.06
2023-04-24T06:42:10.451Z,99996.09
2023-04-24T06:44:56.139Z,100011.72
2023-04-24T06:47:42.379Z,100021.16
2023-04-24T06:50:27.998Z,100014.19
2023-04-24T06:53:15.337Z,100012.69
2023-04-24T06:56:01.448Z,100017.00
2023-04-24T06:58:48.377Z,100023.63
2023-04-24T07:01:34.532Z,100009.34
2023-04-24T07:04:20.935Z,100004.13
2023-04-24T07:07:07.690Z,99998.63
2023-04-24T07:09:55.032Z,100006.78
2023-04-24T07:12:41.241Z,99989.34
2023-04-24T07:15:28.815Z,99995.06
2023-04-24T07:18:15.037Z,99992.59
2023-04-24T07:21:00.736Z,99976.63
2023-04-24T07:23:46.435Z,99968.94
2023-04-24T07:26:32.312Z,99965.22
2023-04-24T07:29:18.079Z,99965.31
2023-04-24T07:32:05.159Z,99974.34
2023-04-24T07:34:51.498Z,99963.69
2023-04-24T07:37:37.345Z,99965.53
2023-04-24T07:40:23.001Z,99968.72
2023-04-24T07:43:08.822Z,99962.13
2023-04-24T07:45:54.606Z,99976.19
2023-04-24T07:48:41.754Z,99976.78
2023-04-24T07:51:28.432Z,99989.84
2023-04-24T07:54:14.251Z,99991.03
2023-04-24T07:56:59.979Z,100002.59
2023-04-24T07:59:45.936Z,99983.47
2023-04-24T08:02:32.344Z,99986.97
2023-04-24T08:05:20.088Z,99997.44
2023-04-24T08:08:06.334Z,99989.47
2023-04-24T08:10:52.298Z,99992.47
2023-04-24T08:13:38.262Z,99985.50
2023-04-24T08:16:24.862Z,99991.81
2023-04-24T08:19:11.041Z,99989.78
2023-04-24T08:21:58.417Z,99997.63
2023-04-24T08:24:44.623Z,99994.28
2023-04-24T08:27:30.312Z,99994.41
2023-04-24T08:30:16.597Z,100008.38
2023-04-24T08:33:02.484Z,100004.63
2023-04-24T08:35:48.212Z,100008.47
2023-04-24T08:38:35.502Z,100009.69
2023-04-24T08:41:22.234Z,100001.69
2023-04-24T08:44:10.146Z,99997.00
2023-04-24T08:46:56.786Z,100005.66
2023-04-24T08:49:42.868Z,99998.19
2023-04-24T08:52:29.457Z,99997.00
2023-04-24T08:55:17.702Z,99997.97
2023-04-24T08:58:03.839Z,99998.84
2023-04-24T09:00:49.921Z,99997.00
2023-04-24T09:03:36.165Z,99993.66
2023-04-24T09:06:22.305Z,99986.13
2023-04-24T09:09:08.206Z,99987.25
2023-04-24T09:11:56.466Z,99988.22
2023-04-24T09:14:45.921Z,99993.53
2023-04-24T09:17:32.336Z,99974.00
2023-04-24T09:20:18.261Z,99975.66
2023-04-24T09:23:04.303Z,99977.50
2023-04-24T09:25:50.784Z,99973.41
2023-04-24T09:28:38.867Z,99973.41
2023-04-24T09:31:25.615Z,99967.03
2023-04-24T09:34:11.406Z,99962.88
2023-04-24T09:36:57.661Z,99978.91
2023-04-24T09:39:43.526Z,99960.78
2023-04-24T09:42:31.446Z,99963.53
2023-04-24T09:45:18.877Z,99976.16
2023-04-24T09:48:04.974Z,99967.97
2023-04-24T09:50:51.770Z,99976.69
2023-04-24T09:53:37.734Z,99963.56
2023-04-24T09:56:27.305Z,99972.19
2023-04-24T09:59:13.464Z,99968.34
2023-04-24T10:02:00.659Z,99978.28
2023-04-24T10:04:55.687Z,99977.31
2023-04-24T10:07:41.466Z,99983.84
2023-04-24T10:10:27.400Z,99988.19
2023-04-24T10:13:14.371Z,99986.72
2023-04-24T10:16:00.376Z,99991.69
2023-04-24T10:18:47.483Z,99983.78
2023-04-24T10:21:33.563Z,99980.94
2023-04-24T10:24:21.369Z,99977.72
2023-04-24T10:27:07.631Z,99986.44
2023-04-24T10:29:53.436Z,99977.16
2023-04-24T10:32:39.322Z,99979.09
2023-04-24T10:35:27.697Z,99977.78
2023-04-24T10:38:14.177Z,99981.75
2023-04-24T10:41:09.021Z,99980.19
2023-04-24T10:44:05.882Z,99980.00
2023-04-24T10:46:54.724Z,99985.59
2023-04-24T10:49:41.070Z,99983.50
2023-04-24T10:52:28.149Z,99981.38
2023-04-24T10:55:14.492Z,99998.00
2023-04-24T10:58:04.409Z,99996.28
2023-04-24T11:00:57.954Z,99977.63
2023-04-24T11:03:43.813Z,99979.91
2023-04-24T11:06:32.408Z,99985.22
2023-04-24T11:09:19.661Z,99979.25
2023-04-24T11:12:07.729Z,99985.69
2023-04-24T11:15:03.314Z,99990.03
2023-04-24T11:17:49.602Z,99991.69
2023-04-24T11:20:35.448Z,99983.59
2023-04-24T11:23:21.753Z,99977.91
2023-04-24T11:26:14.144Z,99977.81
2023-04-24T11:29:08.231Z,99980.28
2023-04-24T11:31:54.024Z,99981.75
2023-04-24T11:34:40.326Z,99979.19
2023-04-24T11:37:26.736Z,99989.44
2023-04-24T11:40:13.652Z,99991.25
2023-04-24T11:43:01.890Z,99994.19
2023-04-24T11:45:49.714Z,99997.25
2023-04-24T11:48:37.114Z,100001.38
2023-04-24T11:51:23.975Z,100001.72
2023-04-24T11:54:10.366Z,100018.66
2023-04-24T11:56:57.064Z,100006.75
2023-04-24T11:59:44.280Z,100030.25
2023-04-24T12:02:30.854Z,100015.97
2023-04-24T12:05:21.277Z,100006.69
2023-04-24T12:08:07.318Z,100001.09
2023-04-24T12:10:53.166Z,100012.19
2023-04-24T12:13:38.975Z,99996.13
2023-04-24T12:16:28.559Z,100012.38
2023-04-24T12:19:19.590Z,100006.94
2023-04-24T12:22:06.105Z,100016.81
2023-04-24T12:24:59.020Z,100016.13
2023-04-24T12:27:45.163Z,100025.63
2023-04-24T12:30:31.454Z,100019.81
2023-04-24T12:33:20.478Z,100049.88
2023-04-24T12:36:07.346Z,100066.59
2023-04-24T12:38:54.749Z,100089.75
2023-04-24T12:41:40.530Z,100093.69
2023-04-24T12:44:33.014Z,100112.75
2023-04-24T12:47:19.187Z,100128.22
2023-04-24T12:50:07.644Z,100146.72
2023-04-24T12:52:53.827Z,100160.44
2023-04-24T12:55:39.697Z,100175.06
2023-04-24T12:58:25.631Z,100203.19
2023-04-24T13:01:11.452Z,100215.81
2023-04-24T13:03:57.820Z,100232.59
2023-04-24T13:06:45.232Z,100246.41
2023-04-24T13:09:32.193Z,100258.38
2023-04-24T13:12:18.201Z,100269.31
2023-04-24T13:15:05.261Z,100292.59
2023-04-24T13:17:51.208Z,100320.19
2023-04-24T13:20:37.372Z,100339.47
2023-04-24T13:23:24.742Z,100352.41
2023-04-24T13:26:10.518Z,100372.00
2023-04-24T13:28:56.343Z,100373.19
2023-04-24T13:31:42.041Z,100395.81
2023-04-24T13:34:27.981Z,100414.94
2023-04-24T13:37:14.004Z,100421.75
2023-04-24T13:40:01.480Z,100441.22
2023-04-24T13:42:47.125Z,100452.78
2023-04-24T13:45:32.705Z,100449.31
2023-04-24T13:48:18.903Z,100471.34
2023-04-24T13:51:05.214Z,100466.66
2023-04-24T13:53:51.021Z,100461.28
2023-04-24T13:56:38.282Z,100483.16
2023-04-24T13:59:24.172Z,100493.81
2023-04-24T14:02:09.772Z,100508.75
2023-04-24T14:04:56.137Z,100515.03
2023-04-24T14:07:42.121Z,100545.78
2023-04-24T14:10:28.077Z,100550.53
2023-04-24T14:13:16.310Z,100581.66
2023-04-24T14:16:02.285Z,100618.78
2023-04-24T14:18:48.509Z,100628.34
2023-04-24T14:21:34.442Z,100647.09
2023-04-24T14:24:20.378Z,100678.44
2023-04-24T14:27:06.312Z,100680.34
2023-04-24T14:29:53.874Z,100707.81
2023-04-24T14:32:39.998Z,100717.06
2023-04-24T14:35:25.866Z,100733.44
2023-04-24T14:38:12.055Z,100745.03
2023-04-24T14:41:06.757Z,100753.13
2023-04-24T14:43:54.277Z,100759.16
2023-04-24T14:46:41.816Z,100779.66
2023-04-24T14:49:28.128Z,100792.69
2023-04-24T14:52:13.866Z,100806.19
2023-04-24T14:54:59.741Z,100823.44
2023-04-24T14:57:45.618Z,100810.84
2023-04-24T15:00:31.579Z,100828.19
2023-04-24T15:03:19.110Z,100832.22
2023-04-24T15:06:05.315Z,100836.13
2023-04-24T15:08:51.078Z,100840.16
2023-04-24T15:11:37.163Z,100853.53
2023-04-24T15:14:23.623Z,100862.09
2023-04-24T15:17:09.389Z,100872.53
2023-04-24T15:19:56.513Z,100882.41
2023-04-24T15:22:42.270Z,100886.34
2023-04-24T15:25:28.001Z,100881.84
2023-04-24T15:28:14.079Z,100897.50
2023-04-24T15:31:00.532Z,100891.78
2023-04-24T15:33:46.809Z,100892.22
2023-04-24T15:36:34.488Z,100863.81
2023-04-24T15:39:21.793Z,100867.38
2023-04-24T15:42:07.535Z,100859.84
2023-04-24T15:44:53.518Z,100847.25
2023-04-24T15:47:39.531Z,100852.56
2023-04-24T15:50:25.849Z,100837.31
2023-04-24T15:53:13.143Z,100843.75
2023-04-24T15:55:58.874Z,100848.94
2023-04-24T15:58:44.759Z,100857.44
2023-04-24T16:01:31.065Z,100850.47
2023-04-24T16:04:17.005Z,100850.06
2023-04-24T16:07:03.140Z,100840.41
2023-04-24T16:09:50.559Z,100854.00
2023-04-24T16:12:36.322Z,100848.53
2023-04-24T16:15:22.333Z,100853.69
2023-04-24T16:18:08.192Z,100857.34
2023-04-24T16:20:54.845Z,100851.78
2023-04-24T16:23:40.939Z,100854.19
2023-04-24T16:26:28.545Z,100842.88
2023-04-24T16:29:15.397Z,100838.81
2023-04-24T16:32:01.396Z,100849.88
2023-04-24T16:34:47.368Z,100851.44
2023-04-24T16:37:33.124Z,100869.03
2023-04-24T16:40:19.499Z,100866.53
2023-04-24T16:43:06.558Z,100882.03
2023-04-24T16:45:52.615Z,100885.94
2023-04-24T16:48:38.397Z,100887.06
2023-04-24T16:51:24.168Z,100888.47
2023-04-24T16:54:10.030Z,100883.56
2023-04-24T16:56:55.775Z,100887.06
2023-04-24T16:59:42.848Z,100886.63
2023-04-24T17:02:29.265Z,100878.84
2023-04-24T17:05:15.581Z,100868.38
2023-04-24T17:08:01.379Z,100863.91
2023-04-24T17:10:47.005Z,100857.91
2023-04-24T17:13:32.700Z,100855.09
2023-04-24T17:16:20.015Z,100847.44
2023-04-24T17:19:05.850Z,100854.53
2023-04-24T17:21:51.640Z,100850.34
2023-04-24T17:24:37.828Z,100848.25
2023-04-24T17:27:25.030Z,100850.06
2023-04-24T17:30:11.370Z,100842.81
2023-04-24T17:32:58.795Z,100852.31
2023-04-24T17:35:44.832Z,100854.69
2023-04-24T17:38:30.684Z,100853.00
2023-04-24T17:41:17.004Z,100861.63
2023-04-24T17:44:02.793Z,100856.06
2023-04-24T17:46:48.441Z,100855.91
2023-04-24T17:49:35.737Z,100861.38
2023-04-24T17:52:21.671Z,100859.41
2023-04-24T17:55:07.702Z,100863.88
2023-04-24T17:57:53.650Z,100860.94
2023-04-24T18:00:39.911Z,100878.06
2023-04-24T18:03:26.219Z,100872.63
2023-04-24T18:06:17.116Z,100878.72
2023-04-24T18:09:03.335Z,100887.13
2023-04-24T18:11:50.074Z,100887.94
2023-04-24T18:14:35.891Z,100884.59
2023-04-24T18:17:21.651Z,100890.56
2023-04-24T18:20:07.935Z,100884.81
2023-04-24T18:22:55.368Z,100880.06
2023-04-24T18:25:41.422Z,100871.69
2023-04-24T18:28:28.410Z,100864.25
2023-04-24T18:31:14.568Z,100850.03
2023-04-24T18:34:00.780Z,100850.03
2023-04-24T18:36:46.596Z,100840.19
2023-04-24T18:39:33.941Z,100832.09
2023-04-24T18:42:19.920Z,100831.53
2023-04-24T18:45:06.318Z,100842.25
2023-04-24T18:47:52.791Z,100839.97
2023-04-24T18:50:40.570Z,100846.63
2023-04-24T18:53:27.153Z,100841.19
2023-04-24T18:56:14.151Z,100838.53
2023-04-24T18:59:00.269Z,100834.00
2023-04-24T19:01:46.252Z,100828.72
2023-04-24T19:04:31.930Z,100829.13
2023-04-24T19:07:20.589Z,100828.56
2023-04-24T19:10:07.360Z,100820.97
2023-04-24T19:12:56.688Z,100827.97
2023-04-24T19:15:42.592Z,100829.31
2023-04-24T19:18:29.311Z,100833.91
2023-04-24T19:21:15.212Z,100823.84
2023-04-24T19:24:01.036Z,100833.47
2023-04-24T19:26:46.858Z,100831.31
2023-04-24T19:29:34.004Z,100839.50
2023-04-24T19:32:20.138Z,100850.47
2023-04-24T19:35:06.813Z,100854.09
2023-04-24T19:37:52.751Z,100865.31
2023-04-24T19:40:38.571Z,100871.66
2023-04-24T19:43:24.549Z,100881.06
2023-04-24T19:46:11.577Z,100887.72
2023-04-24T19:48:57.445Z,100900.34
2023-04-24T19:51:43.359Z,100903.91
2023-04-24T19:54:29.683Z,100922.91
2023-04-24T19:57:18.458Z,100932.66
2023-04-24T20:00:04.898Z,100941.41
2023-04-24T20:02:52.346Z,100946.00
2023-04-24T20:05:38.450Z,100959.19
2023-04-24T20:08:24.906Z,100965.44
2023-04-24T20:11:11.286Z,100966.53
2023-04-24T20:13:57.479Z,100982.38
2023-04-24T20:16:43.924Z,100975.81
2023-04-24T20:19:31.253Z,100977.69
2023-04-24T20:22:17.733Z,100975.31
2023-04-24T20:25:04.056Z,100968.47
2023-04-24T20:27:50.476Z,100968.22
2023-04-24T20:30:37.893Z,100977.81
2023-04-24T20:33:25.545Z,100973.25
2023-04-24T20:36:12.869Z,100972.41
2023-04-24T20:38:59.206Z,100970.63
2023-04-24T20:41:46.222Z,100961.00
2023-04-24T20:44:32.602Z,100964.50
2023-04-24T20:47:18.904Z,100959.81
2023-04-24T20:50:06.385Z,100956.22
2023-04-24T20:52:53.945Z,100951.41
2023-04-24T20:55:40.154Z,100943.47
2023-04-24T20:58:26.501Z,100943.94
2023-04-24T21:01:12.620Z,100934.91
2023-04-24T21:03:58.878Z,100928.56
2023-04-24T21:06:44.752Z,100923.03
2023-04-24T21:09:32.171Z,100912.19
2023-04-24T21:12:18.286Z,100903.06
2023-04-24T21:15:05.516Z,100903.06
2023-04-24T21:17:51.453Z,100895.72
2023-04-24T21:20:37.831Z,100878.75
2023-04-24T21:23:23.713Z,100875.88
2023-04-24T21:26:10.825Z,100870.72
2023-04-24T21:28:56.795Z,100860.59
2023-04-24T21:31:42.572Z,100853.63
2023-04-24T21:34:28.253Z,100837.66
2023-04-24T21:37:15.350Z,100819.72
2023-04-24T21:40:02.361Z,100816.94
2023-04-24T21:42:49.524Z,100811.66
2023-04-24T21:45:35.693Z,100799.13
2023-04-24T21:48:21.725Z,100800.09
2023-04-24T21:51:07.474Z,100793.84
2023-04-24T21:53:53.364Z,100796.75
2023-04-24T21:56:39.148Z,100798.16
2023-04-24T21:59:26.441Z,100807.19
2023-04-24T22:02:12.923Z,100806.63
2023-04-24T22:05:03.293Z,100810.81
2023-04-24T22:07:50.740Z,100800.63
2023-04-24T22:10:37.192Z,100800.50
2023-04-24T22:13:23.408Z,100803.84
2023-04-24T22:16:10.453Z,100809.28
2023-04-24T22:18:56.292Z,100810.50
2023-04-24T22:21:42.188Z,100811.91
2023-04-24T22:24:27.849Z,100818.16
2023-04-24T22:27:13.736Z,100825.25
2023-04-24T22:29:59.396Z,100838.63
2023-04-24T22:32:46.581Z,100835.00
2023-04-24T22:35:32.418Z,100847.38
2023-04-24T22:38:18.164Z,100842.94
2023-04-24T22:41:04.276Z,100844.88
2023-04-24T22:43:51.042Z,100847.03
2023-04-24T22:46:37.094Z,100842.47
2023-04-24T22:49:27.030Z,100835.50
2023-04-24T22:52:14.382Z,100830.00
2023-04-24T22:55:00.709Z,100822.91
2023-04-24T22:57:46.771Z,100837.38
2023-04-24T23:00:32.712Z,100841.81
2023-04-24T23:03:18.660Z,100838.34
2023-04-24T23:06:06.184Z,100842.66
2023-04-24T23:08:52.011Z,100842.06
2023-04-24T23:11:37.718Z,100843.03
2023-04-24T23:14:24.492Z,100856.25
2023-04-24T23:17:10.382Z,100855.63
2023-04-24T23:19:56.154Z,100859.00
2023-04-24T23:22:43.295Z,100865.38
2023-04-24T23:25:29.120Z,100874.53
2023-04-24T23:28:14.789Z,100885.94
2023-04-24T23:31:00.680Z,100901.19
2023-04-24T23:33:46.995Z,100901.19
2023-04-24T23:36:33.093Z,100903.72
2023-04-24T23:39:20.387Z,100908.88
2023-04-24T23:42:07.572Z,100909.72
2023-04-24T23:44:54.018Z,100915.97
2023-04-24T23:47:40.971Z,100924.25
2023-04-24T23:50:26.899Z,100922.34
2023-04-24T23:53:12.767Z,100934.56
2023-04-24T23:56:00.454Z,100937.00
2023-04-24T23:58:46.605Z,100922.22
